Aeroporto :
LOGIN :

Iscrizione | Disclaimer

   EN    FR    IT 

 










Sommario :    VFR   VFR Marginale   IFR   IFR Intensivo   IFR Molto Intensivo
Visibilità : 
Base nubi : 
>= 8 km
>= 3000ft
5 / 8 km
1000 / 3000 ft
1500m / 5 km
500 / 1000 ft
800 / 1500m
200 / 500 ft
< 800m
< 200 ft
Simboli :   Temporali  Nebbia  Neve Forte  Precipitazioni Forti  Vento > 20 kt
SIGMETs :   Varie  Temporali  Ghiacco  Turbolenza  Onda orograficha  Ceneri Vulcaniche







- Altitudine del aeroporto : 297 ft
- Codice IATA : UIP
- Carte del aeroporto


LFRQ - Quimper Pluguffan

ULTIMO METAR :
  • 191230Z AUTO 34011KT 9999 BKN034/// BKN068/// ///CB 16/09 Q1011 TEMPO SHRA

METARs OBSOLETI :
  • 191200Z AUTO 34013KT 300V010 9999 BKN033 BKN040 17/10 Q1011 TEMPO SHRA SCT015TCU
  • 191130Z AUTO 33013KT 9999 FEW029 SCT035 BKN043 17/11 Q1011 TEMPO SHRA SCT015TCU BKN080
  • 191100Z AUTO 33010KT 300V360 9999 SCT033 BKN042 BKN049 17/11 Q1011 TEMPO SHRA SCT015TCU BKN080
  • 191030Z AUTO 34008KT 320V020 9999 FEW024 BKN032 BKN041 16/10 Q1011 TEMPO SHRA SCT015TCU BKN080
  • 191000Z AUTO 34010KT 310V010 9999 SCT023 BKN029 BKN035 15/10 Q1011 TEMPO SHRA SCT015TCU BKN080

TAF TAF LFRQ
Valido dal 19 a 12 ore il 20 a 12 ore UTC


191100Z 1912/2012 34008KT 9999 SCT020 BKN065
PROB30
TEMPO 1912/1918 SHRA SCT015TCU
PROB30
TEMPO 2000/2007 4000 BR OVC005
Nessun NOTAM noto per questo aeroporto.



MetMap, La meteo Aeronautica in un colpo d'occhio ! - Copyright ORBIFLY Dicembre 2007 - Disclaimer

ORBIFLY MET'MAP TEAM :

Programmazione e sviluppo : Alexandra Zaïnal
Concezione e sviluppo : Baudouin d'Aumeries
Co-Programmazione e sviluppo : Marc-Olivier Méhu
Supporto tecnico e logistico : Manuel Goepfert
Aiuto per la traduzione : Arnaldo La Scala

Contatto : metmap@orbifly.com




FONTI E CREDITI :

   NOAA